sensor_id;sensor_type;location;lat;lon;timestamp;P1;durP1;ratioP1;P2;durP2;ratioP2
67363;SDS011;54250;45.572;38.086;2023-02-11T00:00:14;13.43;;;3.65;;
67363;SDS011;54250;45.572;38.086;2023-02-11T00:02:41;4.32;;;2.80;;
67363;SDS011;54250;45.572;38.086;2023-02-11T00:05:07;4.20;;;2.38;;
67363;SDS011;54250;45.572;38.086;2023-02-11T00:07:33;9.60;;;3.55;;
67363;SDS011;54250;45.572;38.086;2023-02-11T00:09:59;2.65;;;1.33;;
67363;SDS011;54250;45.572;38.086;2023-02-11T00:12:27;4.13;;;2.55;;
67363;SDS011;54250;45.572;38.086;2023-02-11T00:14:53;9.45;;;4.55;;
67363;SDS011;54250;45.572;38.086;2023-02-11T00:17:20;2.88;;;2.40;;
67363;SDS011;54250;45.572;38.086;2023-02-11T00:19:49;6.53;;;3.10;;
67363;SDS011;54250;45.572;38.086;2023-02-11T00:22:16;10.85;;;4.53;;
67363;SDS011;54250;45.572;38.086;2023-02-11T00:24:42;6.57;;;2.33;;
67363;SDS011;54250;45.572;38.086;2023-02-11T00:27:08;6.05;;;3.97;;
67363;SDS011;54250;45.572;38.086;2023-02-11T00:29:35;1.92;;;1.77;;
67363;SDS011;54250;45.572;38.086;2023-02-11T00:32:02;1.58;;;1.50;;
67363;SDS011;54250;45.572;38.086;2023-02-11T00:34:33;4.93;;;2.08;;
67363;SDS011;54250;45.572;38.086;2023-02-11T00:37:01;4.20;;;2.83;;
67363;SDS011;54250;45.572;38.086;2023-02-11T00:39:27;4.22;;;2.08;;
67363;SDS011;54250;45.572;38.086;2023-02-11T00:41:54;1.83;;;1.73;;
67363;SDS011;54250;45.572;38.086;2023-02-11T00:44:20;4.43;;;2.90;;
67363;SDS011;54250;45.572;38.086;2023-02-11T00:46:46;2.60;;;2.03;;
67363;SDS011;54250;45.572;38.086;2023-02-11T00:49:12;2.80;;;2.30;;
67363;SDS011;54250;45.572;38.086;2023-02-11T00:51:40;5.85;;;4.05;;
67363;SDS011;54250;45.572;38.086;2023-02-11T00:54:06;3.67;;;2.00;;
67363;SDS011;54250;45.572;38.086;2023-02-11T00:56:32;5.55;;;3.17;;
67363;SDS011;54250;45.572;38.086;2023-02-11T00:58:59;6.72;;;3.92;;
67363;SDS011;54250;45.572;38.086;2023-02-11T01:01:25;9.63;;;4.38;;
67363;SDS011;54250;45.572;38.086;2023-02-11T01:03:51;3.90;;;2.28;;
67363;SDS011;54250;45.572;38.086;2023-02-11T01:06:17;2.67;;;2.22;;
67363;SDS011;54250;45.572;38.086;2023-02-11T01:08:43;3.72;;;2.47;;
67363;SDS011;54250;45.572;38.086;2023-02-11T01:11:15;1.50;;;1.40;;
67363;SDS011;54250;45.572;38.086;2023-02-11T01:13:44;3.92;;;3.55;;
67363;SDS011;54250;45.572;38.086;2023-02-11T01:16:11;4.18;;;3.25;;
67363;SDS011;54250;45.572;38.086;2023-02-11T01:18:37;1.98;;;1.65;;
67363;SDS011;54250;45.572;38.086;2023-02-11T01:21:03;5.38;;;2.60;;
67363;SDS011;54250;45.572;38.086;2023-02-11T01:23:29;3.80;;;2.80;;
67363;SDS011;54250;45.572;38.086;2023-02-11T01:25:55;5.43;;;4.22;;
67363;SDS011;54250;45.572;38.086;2023-02-11T01:28:23;5.78;;;4.20;;
67363;SDS011;54250;45.572;38.086;2023-02-11T01:30:51;14.00;;;4.60;;
67363;SDS011;54250;45.572;38.086;2023-02-11T01:33:18;4.80;;;3.38;;
67363;SDS011;54250;45.572;38.086;2023-02-11T01:35:45;1.95;;;1.83;;
67363;SDS011;54250;45.572;38.086;2023-02-11T01:38:14;1.70;;;1.60;;
67363;SDS011;54250;45.572;38.086;2023-02-11T01:40:51;12.13;;;4.38;;
67363;SDS011;54250;45.572;38.086;2023-02-11T01:43:19;12.73;;;4.50;;
67363;SDS011;54250;45.572;38.086;2023-02-11T01:48:13;8.65;;;4.85;;
67363;SDS011;54250;45.572;38.086;2023-02-11T01:50:43;3.10;;;2.78;;
67363;SDS011;54250;45.572;38.086;2023-02-11T01:53:12;5.45;;;2.10;;
67363;SDS011;54250;45.572;38.086;2023-02-11T01:55:58;1.85;;;1.75;;
67363;SDS011;54250;45.572;38.086;2023-02-11T01:58:43;3.72;;;2.30;;
67363;SDS011;54250;45.572;38.086;2023-02-11T02:01:12;4.40;;;2.88;;
67363;SDS011;54250;45.572;38.086;2023-02-11T02:03:44;6.93;;;2.30;;
67363;SDS011;54250;45.572;38.086;2023-02-11T02:08:51;1.58;;;1.27;;
67363;SDS011;54250;45.572;38.086;2023-02-11T02:11:21;2.00;;;1.23;;
67363;SDS011;54250;45.572;38.086;2023-02-11T02:13:48;2.30;;;2.10;;
67363;SDS011;54250;45.572;38.086;2023-02-11T02:16:16;6.22;;;2.15;;
67363;SDS011;54250;45.572;38.086;2023-02-11T02:21:35;10.18;;;2.53;;
67363;SDS011;54250;45.572;38.086;2023-02-11T02:32:26;6.65;;;3.13;;
67363;SDS011;54250;45.572;38.086;2023-02-11T02:37:30;5.72;;;2.92;;
67363;SDS011;54250;45.572;38.086;2023-02-11T02:40:02;5.75;;;3.35;;
67363;SDS011;54250;45.572;38.086;2023-02-11T02:42:33;3.65;;;2.67;;
67363;SDS011;54250;45.572;38.086;2023-02-11T02:45:00;2.17;;;1.70;;
67363;SDS011;54250;45.572;38.086;2023-02-11T02:47:26;3.13;;;1.38;;
67363;SDS011;54250;45.572;38.086;2023-02-11T02:49:52;3.97;;;2.58;;
67363;SDS011;54250;45.572;38.086;2023-02-11T02:52:29;7.80;;;2.97;;
67363;SDS011;54250;45.572;38.086;2023-02-11T03:00:47;3.95;;;3.35;;
67363;SDS011;54250;45.572;38.086;2023-02-11T03:06:07;5.35;;;4.30;;
67363;SDS011;54250;45.572;38.086;2023-02-11T03:08:50;4.65;;;3.10;;
67363;SDS011;54250;45.572;38.086;2023-02-11T03:11:21;3.88;;;2.97;;
67363;SDS011;54250;45.572;38.086;2023-02-11T03:13:48;4.35;;;3.42;;
67363;SDS011;54250;45.572;38.086;2023-02-11T03:16:19;3.83;;;3.30;;
67363;SDS011;54250;45.572;38.086;2023-02-11T03:19:00;2.22;;;2.10;;
67363;SDS011;54250;45.572;38.086;2023-02-11T03:21:30;5.90;;;2.85;;
67363;SDS011;54250;45.572;38.086;2023-02-11T03:23:59;4.80;;;2.78;;
67363;SDS011;54250;45.572;38.086;2023-02-11T03:26:52;2.20;;;2.03;;
67363;SDS011;54250;45.572;38.086;2023-02-11T03:32:08;21.30;;;3.53;;
67363;SDS011;54250;45.572;38.086;2023-02-11T03:34:46;3.10;;;2.42;;
67363;SDS011;54250;45.572;38.086;2023-02-11T03:37:19;11.63;;;4.38;;
67363;SDS011;54250;45.572;38.086;2023-02-11T03:39:52;3.75;;;3.35;;
67363;SDS011;54250;45.572;38.086;2023-02-11T03:42:22;3.10;;;1.92;;
67363;SDS011;54250;45.572;38.086;2023-02-11T03:44:52;4.40;;;2.92;;
67363;SDS011;54250;45.572;38.086;2023-02-11T03:47:23;2.90;;;2.00;;
67363;SDS011;54250;45.572;38.086;2023-02-11T03:49:52;3.78;;;1.70;;
67363;SDS011;54250;45.572;38.086;2023-02-11T03:52:20;6.65;;;1.77;;
67363;SDS011;54250;45.572;38.086;2023-02-11T03:54:47;1.73;;;1.63;;
67363;SDS011;54250;45.572;38.086;2023-02-11T03:57:18;2.20;;;1.08;;
67363;SDS011;54250;45.572;38.086;2023-02-11T03:59:54;4.50;;;3.58;;
67363;SDS011;54250;45.572;38.086;2023-02-11T04:02:26;8.30;;;2.65;;
67363;SDS011;54250;45.572;38.086;2023-02-11T04:04:55;4.25;;;2.25;;
67363;SDS011;54250;45.572;38.086;2023-02-11T04:07:22;1.60;;;1.23;;
67363;SDS011;54250;45.572;38.086;2023-02-11T04:09:48;6.47;;;2.40;;
67363;SDS011;54250;45.572;38.086;2023-02-11T04:12:15;1.88;;;1.70;;
67363;SDS011;54250;45.572;38.086;2023-02-11T04:14:41;1.27;;;1.15;;
67363;SDS011;54250;45.572;38.086;2023-02-11T04:17:07;1.58;;;1.48;;
67363;SDS011;54250;45.572;38.086;2023-02-11T04:19:33;2.67;;;2.47;;
67363;SDS011;54250;45.572;38.086;2023-02-11T04:21:59;5.72;;;2.50;;
67363;SDS011;54250;45.572;38.086;2023-02-11T04:24:25;3.75;;;1.85;;
67363;SDS011;54250;45.572;38.086;2023-02-11T04:26:51;17.65;;;3.78;;
67363;SDS011;54250;45.572;38.086;2023-02-11T04:29:17;4.20;;;2.22;;
67363;SDS011;54250;45.572;38.086;2023-02-11T04:31:44;1.77;;;1.67;;
67363;SDS011;54250;45.572;38.086;2023-02-11T04:34:10;2.83;;;2.63;;
67363;SDS011;54250;45.572;38.086;2023-02-11T04:36:36;2.35;;;1.98;;
67363;SDS011;54250;45.572;38.086;2023-02-11T04:39:02;3.08;;;0.93;;
67363;SDS011;54250;45.572;38.086;2023-02-11T04:41:29;0.68;;;0.63;;
67363;SDS011;54250;45.572;38.086;2023-02-11T04:43:55;8.48;;;1.77;;
67363;SDS011;54250;45.572;38.086;2023-02-11T04:46:20;1.88;;;1.77;;
67363;SDS011;54250;45.572;38.086;2023-02-11T04:48:46;6.32;;;2.78;;
67363;SDS011;54250;45.572;38.086;2023-02-11T04:51:12;2.72;;;2.00;;
67363;SDS011;54250;45.572;38.086;2023-02-11T04:53:39;3.00;;;1.52;;
67363;SDS011;54250;45.572;38.086;2023-02-11T04:56:05;1.23;;;0.88;;
67363;SDS011;54250;45.572;38.086;2023-02-11T04:58:31;1.45;;;1.33;;
67363;SDS011;54250;45.572;38.086;2023-02-11T05:01:11;6.57;;;2.67;;
67363;SDS011;54250;45.572;38.086;2023-02-11T05:03:39;2.55;;;1.50;;
67363;SDS011;54250;45.572;38.086;2023-02-11T05:06:06;2.95;;;2.60;;
67363;SDS011;54250;45.572;38.086;2023-02-11T05:08:32;1.55;;;1.27;;
67363;SDS011;54250;45.572;38.086;2023-02-11T05:10:58;3.60;;;3.15;;
67363;SDS011;54250;45.572;38.086;2023-02-11T05:13:26;1.25;;;1.15;;
67363;SDS011;54250;45.572;38.086;2023-02-11T05:15:53;24.60;;;5.90;;
67363;SDS011;54250;45.572;38.086;2023-02-11T05:18:20;11.60;;;5.65;;
67363;SDS011;54250;45.572;38.086;2023-02-11T05:20:46;8.00;;;4.72;;
67363;SDS011;54250;45.572;38.086;2023-02-11T05:23:12;16.25;;;7.22;;
67363;SDS011;54250;45.572;38.086;2023-02-11T05:25:38;9.55;;;5.40;;
67363;SDS011;54250;45.572;38.086;2023-02-11T05:28:04;18.75;;;7.65;;
67363;SDS011;54250;45.572;38.086;2023-02-11T05:30:30;7.72;;;5.50;;
67363;SDS011;54250;45.572;38.086;2023-02-11T05:32:56;18.63;;;7.82;;
67363;SDS011;54250;45.572;38.086;2023-02-11T05:35:22;25.95;;;7.60;;
67363;SDS011;54250;45.572;38.086;2023-02-11T05:37:48;16.27;;;7.50;;
67363;SDS011;54250;45.572;38.086;2023-02-11T05:40:15;22.25;;;9.15;;
67363;SDS011;54250;45.572;38.086;2023-02-11T05:42:41;17.00;;;8.60;;
67363;SDS011;54250;45.572;38.086;2023-02-11T05:45:07;14.77;;;7.85;;
67363;SDS011;54250;45.572;38.086;2023-02-11T05:47:33;14.95;;;8.25;;
67363;SDS011;54250;45.572;38.086;2023-02-11T05:49:59;17.20;;;7.75;;
67363;SDS011;54250;45.572;38.086;2023-02-11T05:52:25;13.48;;;7.15;;
67363;SDS011;54250;45.572;38.086;2023-02-11T05:54:51;19.55;;;9.27;;
67363;SDS011;54250;45.572;38.086;2023-02-11T05:57:17;21.25;;;9.00;;
67363;SDS011;54250;45.572;38.086;2023-02-11T05:59:43;19.15;;;7.93;;
67363;SDS011;54250;45.572;38.086;2023-02-11T06:02:09;18.17;;;8.52;;
67363;SDS011;54250;45.572;38.086;2023-02-11T06:04:35;16.75;;;9.10;;
67363;SDS011;54250;45.572;38.086;2023-02-11T06:07:02;19.25;;;7.90;;
67363;SDS011;54250;45.572;38.086;2023-02-11T06:09:28;20.88;;;9.70;;
67363;SDS011;54250;45.572;38.086;2023-02-11T06:11:54;18.63;;;9.82;;
67363;SDS011;54250;45.572;38.086;2023-02-11T06:14:20;16.67;;;7.97;;
67363;SDS011;54250;45.572;38.086;2023-02-11T06:16:46;24.27;;;10.55;;
67363;SDS011;54250;45.572;38.086;2023-02-11T06:19:12;20.20;;;10.18;;
67363;SDS011;54250;45.572;38.086;2023-02-11T06:21:38;23.38;;;10.20;;
67363;SDS011;54250;45.572;38.086;2023-02-11T06:24:04;19.05;;;10.02;;
67363;SDS011;54250;45.572;38.086;2023-02-11T06:26:31;19.77;;;9.75;;
67363;SDS011;54250;45.572;38.086;2023-02-11T06:29:00;19.45;;;9.70;;
67363;SDS011;54250;45.572;38.086;2023-02-11T06:31:26;19.85;;;9.68;;
67363;SDS011;54250;45.572;38.086;2023-02-11T06:33:52;21.20;;;9.80;;
67363;SDS011;54250;45.572;38.086;2023-02-11T06:36:20;26.15;;;11.93;;
67363;SDS011;54250;45.572;38.086;2023-02-11T06:38:47;26.38;;;11.70;;
67363;SDS011;54250;45.572;38.086;2023-02-11T06:41:14;23.02;;;10.85;;
67363;SDS011;54250;45.572;38.086;2023-02-11T06:43:43;25.60;;;11.02;;
67363;SDS011;54250;45.572;38.086;2023-02-11T06:46:09;20.50;;;10.65;;
67363;SDS011;54250;45.572;38.086;2023-02-11T06:48:35;26.88;;;12.43;;
67363;SDS011;54250;45.572;38.086;2023-02-11T06:51:05;19.00;;;9.85;;
67363;SDS011;54250;45.572;38.086;2023-02-11T06:53:34;24.45;;;11.75;;
67363;SDS011;54250;45.572;38.086;2023-02-11T06:56:05;26.45;;;11.07;;
67363;SDS011;54250;45.572;38.086;2023-02-11T06:58:34;27.10;;;11.23;;
67363;SDS011;54250;45.572;38.086;2023-02-11T07:01:04;22.17;;;11.38;;
67363;SDS011;54250;45.572;38.086;2023-02-11T07:03:35;20.55;;;9.43;;
67363;SDS011;54250;45.572;38.086;2023-02-11T07:06:03;18.35;;;10.05;;
67363;SDS011;54250;45.572;38.086;2023-02-11T07:08:34;18.52;;;9.32;;
67363;SDS011;54250;45.572;38.086;2023-02-11T07:11:07;17.73;;;8.18;;
67363;SDS011;54250;45.572;38.086;2023-02-11T07:13:40;16.08;;;9.07;;
67363;SDS011;54250;45.572;38.086;2023-02-11T07:16:08;18.13;;;7.75;;
67363;SDS011;54250;45.572;38.086;2023-02-11T07:18:36;16.23;;;7.93;;
67363;SDS011;54250;45.572;38.086;2023-02-11T07:21:03;16.13;;;7.55;;
67363;SDS011;54250;45.572;38.086;2023-02-11T07:23:30;18.27;;;8.40;;
67363;SDS011;54250;45.572;38.086;2023-02-11T07:25:56;14.40;;;7.57;;
67363;SDS011;54250;45.572;38.086;2023-02-11T07:28:22;15.38;;;7.57;;
67363;SDS011;54250;45.572;38.086;2023-02-11T07:30:48;11.30;;;6.65;;
67363;SDS011;54250;45.572;38.086;2023-02-11T07:33:14;14.40;;;6.45;;
67363;SDS011;54250;45.572;38.086;2023-02-11T07:35:40;12.32;;;6.60;;
67363;SDS011;54250;45.572;38.086;2023-02-11T07:38:06;12.07;;;6.45;;
67363;SDS011;54250;45.572;38.086;2023-02-11T07:40:32;11.90;;;6.47;;
67363;SDS011;54250;45.572;38.086;2023-02-11T07:42:59;9.27;;;5.18;;
67363;SDS011;54250;45.572;38.086;2023-02-11T07:45:26;11.18;;;5.40;;
67363;SDS011;54250;45.572;38.086;2023-02-11T07:47:51;9.85;;;5.18;;
67363;SDS011;54250;45.572;38.086;2023-02-11T07:50:17;5.25;;;3.90;;
67363;SDS011;54250;45.572;38.086;2023-02-11T07:52:44;7.20;;;3.70;;
67363;SDS011;54250;45.572;38.086;2023-02-11T07:55:10;9.98;;;4.53;;
67363;SDS011;54250;45.572;38.086;2023-02-11T07:57:36;9.70;;;4.88;;
67363;SDS011;54250;45.572;38.086;2023-02-11T08:00:03;11.68;;;4.85;;
67363;SDS011;54250;45.572;38.086;2023-02-11T08:02:36;9.73;;;4.78;;
67363;SDS011;54250;45.572;38.086;2023-02-11T08:05:02;6.43;;;3.63;;
67363;SDS011;54250;45.572;38.086;2023-02-11T08:07:27;4.45;;;3.30;;
67363;SDS011;54250;45.572;38.086;2023-02-11T08:09:54;3.90;;;2.40;;
67363;SDS011;54250;45.572;38.086;2023-02-11T08:12:20;6.70;;;3.60;;
67363;SDS011;54250;45.572;38.086;2023-02-11T08:14:45;6.88;;;3.50;;
67363;SDS011;54250;45.572;38.086;2023-02-11T08:17:12;6.70;;;3.72;;
67363;SDS011;54250;45.572;38.086;2023-02-11T08:19:37;6.95;;;3.55;;
67363;SDS011;54250;45.572;38.086;2023-02-11T08:22:03;6.60;;;4.18;;
67363;SDS011;54250;45.572;38.086;2023-02-11T08:24:29;6.00;;;3.63;;
67363;SDS011;54250;45.572;38.086;2023-02-11T08:26:56;6.32;;;3.58;;
67363;SDS011;54250;45.572;38.086;2023-02-11T08:29:21;5.13;;;2.88;;
67363;SDS011;54250;45.572;38.086;2023-02-11T08:31:48;5.78;;;2.58;;
67363;SDS011;54250;45.572;38.086;2023-02-11T08:34:14;4.22;;;2.40;;
67363;SDS011;54250;45.572;38.086;2023-02-11T08:36:43;2.97;;;1.90;;
67363;SDS011;54250;45.572;38.086;2023-02-11T08:39:13;4.35;;;2.60;;
67363;SDS011;54250;45.572;38.086;2023-02-11T08:41:42;4.03;;;2.70;;
67363;SDS011;54250;45.572;38.086;2023-02-11T08:44:08;4.43;;;2.47;;
67363;SDS011;54250;45.572;38.086;2023-02-11T08:46:34;3.92;;;2.17;;
67363;SDS011;54250;45.572;38.086;2023-02-11T08:49:00;4.97;;;2.30;;
67363;SDS011;54250;45.572;38.086;2023-02-11T08:51:27;5.30;;;2.78;;
67363;SDS011;54250;45.572;38.086;2023-02-11T08:53:57;5.03;;;2.60;;
67363;SDS011;54250;45.572;38.086;2023-02-11T08:56:24;3.85;;;2.53;;
67363;SDS011;54250;45.572;38.086;2023-02-11T08:58:51;7.00;;;2.50;;
67363;SDS011;54250;45.572;38.086;2023-02-11T09:01:19;3.80;;;2.83;;
67363;SDS011;54250;45.572;38.086;2023-02-11T09:03:47;4.18;;;2.50;;
67363;SDS011;54250;45.572;38.086;2023-02-11T09:06:13;5.57;;;2.65;;
67363;SDS011;54250;45.572;38.086;2023-02-11T09:08:40;3.35;;;2.40;;
67363;SDS011;54250;45.572;38.086;2023-02-11T09:11:08;4.78;;;2.30;;
67363;SDS011;54250;45.572;38.086;2023-02-11T09:13:35;4.47;;;2.22;;
67363;SDS011;54250;45.572;38.086;2023-02-11T09:16:02;5.78;;;2.85;;
67363;SDS011;54250;45.572;38.086;2023-02-11T09:18:30;4.97;;;2.63;;
67363;SDS011;54250;45.572;38.086;2023-02-11T09:21:06;4.30;;;2.28;;
67363;SDS011;54250;45.572;38.086;2023-02-11T09:23:33;5.00;;;2.85;;
67363;SDS011;54250;45.572;38.086;2023-02-11T09:26:06;4.53;;;2.65;;
67363;SDS011;54250;45.572;38.086;2023-02-11T09:31:03;5.55;;;2.80;;
67363;SDS011;54250;45.572;38.086;2023-02-11T09:33:30;6.50;;;2.33;;
67363;SDS011;54250;45.572;38.086;2023-02-11T09:35:59;6.55;;;2.53;;
67363;SDS011;54250;45.572;38.086;2023-02-11T09:38:27;3.72;;;2.60;;
67363;SDS011;54250;45.572;38.086;2023-02-11T09:40:53;5.22;;;2.63;;
67363;SDS011;54250;45.572;38.086;2023-02-11T09:43:20;5.60;;;2.50;;
67363;SDS011;54250;45.572;38.086;2023-02-11T09:46:10;5.88;;;3.13;;
67363;SDS011;54250;45.572;38.086;2023-02-11T09:48:40;5.57;;;2.80;;
67363;SDS011;54250;45.572;38.086;2023-02-11T09:56:22;4.65;;;2.22;;
67363;SDS011;54250;45.572;38.086;2023-02-11T09:58:49;4.22;;;2.60;;
67363;SDS011;54250;45.572;38.086;2023-02-11T10:06:38;4.88;;;2.10;;
67363;SDS011;54250;45.572;38.086;2023-02-11T10:15:07;3.60;;;2.20;;
67363;SDS011;54250;45.572;38.086;2023-02-11T10:18:01;2.95;;;1.85;;
67363;SDS011;54250;45.572;38.086;2023-02-11T10:23:38;5.28;;;2.33;;
67363;SDS011;54250;45.572;38.086;2023-02-11T10:26:11;4.47;;;2.08;;
67363;SDS011;54250;45.572;38.086;2023-02-11T10:28:39;6.13;;;2.03;;
67363;SDS011;54250;45.572;38.086;2023-02-11T10:31:12;3.03;;;1.83;;
67363;SDS011;54250;45.572;38.086;2023-02-11T10:36:21;5.25;;;1.60;;
67363;SDS011;54250;45.572;38.086;2023-02-11T10:38:50;2.08;;;1.55;;
67363;SDS011;54250;45.572;38.086;2023-02-11T10:41:18;3.25;;;2.03;;
67363;SDS011;54250;45.572;38.086;2023-02-11T10:43:50;2.55;;;1.67;;
67363;SDS011;54250;45.572;38.086;2023-02-11T10:46:17;5.00;;;1.67;;
67363;SDS011;54250;45.572;38.086;2023-02-11T10:48:51;11.43;;;1.95;;
67363;SDS011;54250;45.572;38.086;2023-02-11T10:51:19;5.93;;;3.70;;
67363;SDS011;54250;45.572;38.086;2023-02-11T10:53:47;2.92;;;1.60;;
67363;SDS011;54250;45.572;38.086;2023-02-11T10:56:21;4.47;;;1.90;;
67363;SDS011;54250;45.572;38.086;2023-02-11T11:04:39;2.75;;;1.50;;
67363;SDS011;54250;45.572;38.086;2023-02-11T11:09:49;3.83;;;1.38;;
67363;SDS011;54250;45.572;38.086;2023-02-11T11:12:25;2.08;;;1.48;;
67363;SDS011;54250;45.572;38.086;2023-02-11T11:15:01;7.13;;;1.80;;
67363;SDS011;54250;45.572;38.086;2023-02-11T11:17:52;2.78;;;1.73;;
67363;SDS011;54250;45.572;38.086;2023-02-11T11:20:34;3.40;;;1.35;;
67363;SDS011;54250;45.572;38.086;2023-02-11T11:23:20;5.63;;;1.77;;
67363;SDS011;54250;45.572;38.086;2023-02-11T11:28:28;4.57;;;1.75;;
67363;SDS011;54250;45.572;38.086;2023-02-11T11:30:57;2.05;;;1.27;;
67363;SDS011;54250;45.572;38.086;2023-02-11T11:33:28;12.70;;;1.65;;
67363;SDS011;54250;45.572;38.086;2023-02-11T11:36:02;2.83;;;1.17;;
67363;SDS011;54250;45.572;38.086;2023-02-11T11:38:31;1.95;;;1.20;;
67363;SDS011;54250;45.572;38.086;2023-02-11T11:46:35;4.97;;;2.13;;
67363;SDS011;54250;45.572;38.086;2023-02-11T11:51:55;2.53;;;1.95;;
67363;SDS011;54250;45.572;38.086;2023-02-11T11:54:42;6.53;;;4.60;;
67363;SDS011;54250;45.572;38.086;2023-02-11T11:57:16;1.73;;;1.13;;
67363;SDS011;54250;45.572;38.086;2023-02-11T11:59:45;2.47;;;1.70;;
67363;SDS011;54250;45.572;38.086;2023-02-11T12:22:55;4.18;;;1.38;;
67363;SDS011;54250;45.572;38.086;2023-02-11T12:31:14;2.63;;;1.40;;
67363;SDS011;54250;45.572;38.086;2023-02-11T12:39:50;2.13;;;1.55;;
67363;SDS011;54250;45.572;38.086;2023-02-11T12:45:43;1.48;;;1.30;;
67363;SDS011;54250;45.572;38.086;2023-02-11T12:51:20;0.95;;;0.60;;
67363;SDS011;54250;45.572;38.086;2023-02-11T13:08:11;1.90;;;1.30;;
67363;SDS011;54250;45.572;38.086;2023-02-11T13:11:07;17.00;;;1.05;;
67363;SDS011;54250;45.572;38.086;2023-02-11T13:25:05;0.93;;;0.60;;
67363;SDS011;54250;45.572;38.086;2023-02-11T13:27:58;1.05;;;0.77;;
67363;SDS011;54250;45.572;38.086;2023-02-11T13:30:36;0.20;;;0.20;;
67363;SDS011;54250;45.572;38.086;2023-02-11T13:33:15;0.70;;;0.55;;
67363;SDS011;54250;45.572;38.086;2023-02-11T13:35:44;0.40;;;0.40;;
67363;SDS011;54250;45.572;38.086;2023-02-11T13:38:34;0.75;;;0.65;;
67363;SDS011;54250;45.572;38.086;2023-02-11T13:41:18;2.17;;;1.08;;
67363;SDS011;54250;45.572;38.086;2023-02-11T13:43:58;1.45;;;0.38;;
67363;SDS011;54250;45.572;38.086;2023-02-11T13:46:46;1.83;;;0.60;;
67363;SDS011;54250;45.572;38.086;2023-02-11T13:49:22;0.70;;;0.70;;
67363;SDS011;54250;45.572;38.086;2023-02-11T13:51:52;0.40;;;0.40;;
67363;SDS011;54250;45.572;38.086;2023-02-11T13:54:22;1.38;;;0.70;;
67363;SDS011;54250;45.572;38.086;2023-02-11T13:59:46;1.75;;;0.73;;
67363;SDS011;54250;45.572;38.086;2023-02-11T14:02:28;2.42;;;1.33;;
67363;SDS011;54250;45.572;38.086;2023-02-11T14:08:12;1.48;;;0.40;;
67363;SDS011;54250;45.572;38.086;2023-02-11T14:16:14;5.97;;;1.70;;
67363;SDS011;54250;45.572;38.086;2023-02-11T14:31:33;0.40;;;0.40;;
67363;SDS011;54250;45.572;38.086;2023-02-11T14:42:04;1.50;;;0.90;;
67363;SDS011;54250;45.572;38.086;2023-02-11T14:44:39;2.95;;;1.35;;
67363;SDS011;54250;45.572;38.086;2023-02-11T14:47:05;2.55;;;0.82;;
67363;SDS011;54250;45.572;38.086;2023-02-11T14:49:37;1.98;;;0.80;;
67363;SDS011;54250;45.572;38.086;2023-02-11T14:52:06;1.95;;;0.55;;
67363;SDS011;54250;45.572;38.086;2023-02-11T14:54:38;4.38;;;1.50;;
67363;SDS011;54250;45.572;38.086;2023-02-11T14:57:06;0.20;;;0.20;;
67363;SDS011;54250;45.572;38.086;2023-02-11T15:00:00;0.40;;;0.22;;
67363;SDS011;54250;45.572;38.086;2023-02-11T15:02:35;0.38;;;0.38;;
67363;SDS011;54250;45.572;38.086;2023-02-11T15:07:45;0.25;;;0.25;;
67363;SDS011;54250;45.572;38.086;2023-02-11T15:12:58;0.80;;;0.68;;
67363;SDS011;54250;45.572;38.086;2023-02-11T15:15:26;2.30;;;1.23;;
67363;SDS011;54250;45.572;38.086;2023-02-11T15:17:52;4.38;;;2.70;;
67363;SDS011;54250;45.572;38.086;2023-02-11T15:20:21;5.63;;;4.60;;
67363;SDS011;54250;45.572;38.086;2023-02-11T15:22:53;5.45;;;3.40;;
67363;SDS011;54250;45.572;38.086;2023-02-11T15:25:21;9.45;;;3.10;;
67363;SDS011;54250;45.572;38.086;2023-02-11T15:27:52;3.92;;;3.53;;
67363;SDS011;54250;45.572;38.086;2023-02-11T15:32:50;10.95;;;5.28;;
67363;SDS011;54250;45.572;38.086;2023-02-11T15:35:29;0.65;;;0.65;;
67363;SDS011;54250;45.572;38.086;2023-02-11T15:37:58;0.40;;;0.40;;
67363;SDS011;54250;45.572;38.086;2023-02-11T15:40:25;1.75;;;1.45;;
67363;SDS011;54250;45.572;38.086;2023-02-11T15:42:54;15.57;;;5.78;;
67363;SDS011;54250;45.572;38.086;2023-02-11T15:45:25;28.17;;;11.15;;
67363;SDS011;54250;45.572;38.086;2023-02-11T15:50:37;31.35;;;10.63;;
67363;SDS011;54250;45.572;38.086;2023-02-11T15:55:59;16.90;;;7.53;;
67363;SDS011;54250;45.572;38.086;2023-02-11T15:58:38;6.13;;;3.85;;
67363;SDS011;54250;45.572;38.086;2023-02-11T16:03:32;3.35;;;1.98;;
67363;SDS011;54250;45.572;38.086;2023-02-11T16:06:15;4.55;;;1.27;;
67363;SDS011;54250;45.572;38.086;2023-02-11T16:08:54;1.92;;;1.10;;
67363;SDS011;54250;45.572;38.086;2023-02-11T16:11:32;0.70;;;0.70;;
67363;SDS011;54250;45.572;38.086;2023-02-11T16:14:00;0.50;;;0.50;;
67363;SDS011;54250;45.572;38.086;2023-02-11T16:16:28;1.30;;;1.15;;
67363;SDS011;54250;45.572;38.086;2023-02-11T16:18:57;0.88;;;0.65;;
67363;SDS011;54250;45.572;38.086;2023-02-11T16:21:29;1.13;;;0.95;;
67363;SDS011;54250;45.572;38.086;2023-02-11T16:24:04;0.82;;;0.82;;
67363;SDS011;54250;45.572;38.086;2023-02-11T16:26:38;1.75;;;0.95;;
67363;SDS011;54250;45.572;38.086;2023-02-11T16:29:14;0.55;;;0.55;;
67363;SDS011;54250;45.572;38.086;2023-02-11T16:31:43;3.45;;;0.98;;
67363;SDS011;54250;45.572;38.086;2023-02-11T16:34:21;0.40;;;0.40;;
67363;SDS011;54250;45.572;38.086;2023-02-11T16:36:49;0.20;;;0.20;;
67363;SDS011;54250;45.572;38.086;2023-02-11T16:39:16;0.43;;;0.43;;
67363;SDS011;54250;45.572;38.086;2023-02-11T16:41:45;1.65;;;1.55;;
67363;SDS011;54250;45.572;38.086;2023-02-11T16:44:12;1.38;;;1.17;;
67363;SDS011;54250;45.572;38.086;2023-02-11T16:46:38;0.68;;;0.68;;
67363;SDS011;54250;45.572;38.086;2023-02-11T16:49:14;0.32;;;0.32;;
67363;SDS011;54250;45.572;38.086;2023-02-11T16:51:53;0.40;;;0.40;;
67363;SDS011;54250;45.572;38.086;2023-02-11T16:54:21;0.13;;;0.13;;
67363;SDS011;54250;45.572;38.086;2023-02-11T16:56:48;1.02;;;0.73;;
67363;SDS011;54250;45.572;38.086;2023-02-11T16:59:14;1.20;;;1.10;;
67363;SDS011;54250;45.572;38.086;2023-02-11T17:01:41;0.93;;;0.93;;
67363;SDS011;54250;45.572;38.086;2023-02-11T17:04:15;0.57;;;0.57;;
67363;SDS011;54250;45.572;38.086;2023-02-11T17:06:52;0.43;;;0.43;;
67363;SDS011;54250;45.572;38.086;2023-02-11T17:09:22;3.30;;;2.20;;
67363;SDS011;54250;45.572;38.086;2023-02-11T17:11:50;5.65;;;2.67;;
67363;SDS011;54250;45.572;38.086;2023-02-11T17:14:16;2.90;;;1.95;;
67363;SDS011;54250;45.572;38.086;2023-02-11T17:16:44;4.53;;;2.33;;
67363;SDS011;54250;45.572;38.086;2023-02-11T17:19:12;2.05;;;1.83;;
67363;SDS011;54250;45.572;38.086;2023-02-11T17:21:43;6.93;;;2.72;;
67363;SDS011;54250;45.572;38.086;2023-02-11T17:24:12;7.45;;;1.83;;
67363;SDS011;54250;45.572;38.086;2023-02-11T17:26:39;1.95;;;1.58;;
67363;SDS011;54250;45.572;38.086;2023-02-11T17:29:07;4.40;;;1.63;;
67363;SDS011;54250;45.572;38.086;2023-02-11T17:31:35;1.25;;;1.08;;
67363;SDS011;54250;45.572;38.086;2023-02-11T17:34:01;0.30;;;0.30;;
67363;SDS011;54250;45.572;38.086;2023-02-11T17:36:28;0.20;;;0.20;;
67363;SDS011;54250;45.572;38.086;2023-02-11T17:38:55;2.63;;;1.27;;
67363;SDS011;54250;45.572;38.086;2023-02-11T17:41:22;3.83;;;1.85;;
67363;SDS011;54250;45.572;38.086;2023-02-11T17:43:49;0.88;;;0.63;;
67363;SDS011;54250;45.572;38.086;2023-02-11T17:46:15;1.75;;;1.48;;
67363;SDS011;54250;45.572;38.086;2023-02-11T17:48:41;0.60;;;0.60;;
67363;SDS011;54250;45.572;38.086;2023-02-11T17:51:24;1.80;;;1.60;;